createdAt,value
2023-02-27T06:32:59.924Z,5.30
2023-02-27T06:35:26.378Z,0.42
2023-02-27T06:49:45.137Z,0.32
2023-02-27T07:04:34.158Z,0.21
2023-02-27T07:34:14.367Z,0.27
2023-02-27T07:49:05.724Z,0.43
2023-02-27T08:03:55.339Z,0.64
2023-02-27T08:18:45.027Z,0.98
2023-02-27T08:33:41.504Z,1.20
2023-02-27T08:48:26.340Z,1.44
2023-02-27T09:03:17.141Z,1.84
2023-02-27T09:18:07.959Z,2.11
2023-02-27T09:32:58.256Z,2.30
2023-02-27T09:47:48.751Z,2.66
2023-02-27T10:02:48.384Z,2.92
2023-02-27T10:17:48.325Z,3.20
2023-02-27T10:32:34.118Z,3.47
2023-02-27T10:47:24.407Z,3.77
2023-02-27T11:02:16.875Z,4.07
2023-02-27T11:17:10.078Z,4.07
2023-02-27T11:32:10.198Z,4.10
2023-02-27T11:47:14.954Z,4.47
2023-02-27T12:02:22.487Z,4.76
2023-02-27T12:17:27.095Z,5.15
2023-02-27T12:32:27.439Z,5.42
2023-02-27T12:47:45.057Z,5.64
2023-02-27T13:02:54.153Z,5.73
2023-02-27T13:17:53.589Z,5.93
2023-02-27T13:33:05.632Z,5.81
2023-02-27T13:48:01.566Z,5.37
2023-02-27T14:03:00.323Z,5.75
2023-02-27T14:17:54.647Z,5.96
2023-02-27T14:32:36.257Z,5.75
2023-02-27T14:47:32.047Z,5.76
2023-02-27T15:02:27.054Z,5.62
2023-02-27T15:17:17.234Z,5.36
2023-02-27T15:32:05.587Z,5.28
2023-02-27T15:46:55.939Z,5.28
2023-02-27T16:01:46.633Z,5.12
2023-02-27T16:16:36.454Z,4.78
2023-02-27T16:31:26.721Z,4.74
2023-02-27T16:46:16.070Z,4.72
2023-02-27T17:01:05.823Z,4.54
2023-02-27T17:15:55.251Z,4.41
2023-02-27T17:30:45.619Z,4.27
2023-02-27T17:45:35.833Z,4.10
2023-02-27T18:00:26.304Z,4.12
2023-02-27T18:15:15.858Z,3.99
2023-02-27T18:30:07.054Z,3.94
2023-02-27T18:44:57.239Z,3.92
2023-02-27T18:59:47.071Z,3.83
2023-02-27T19:14:36.806Z,3.71
2023-02-27T19:29:26.419Z,3.65
2023-02-27T19:44:17.133Z,3.63
2023-02-27T19:59:06.582Z,3.52
2023-02-27T20:13:55.235Z,3.22
2023-02-27T20:28:45.375Z,3.03
2023-02-27T20:43:34.801Z,2.95
2023-02-27T20:58:24.640Z,2.98
2023-02-27T21:13:14.034Z,2.89
2023-02-27T21:28:03.654Z,2.69
2023-02-27T21:42:52.557Z,2.47
2023-02-27T21:57:42.350Z,2.19
2023-02-27T22:12:32.220Z,1.89
2023-02-27T22:27:22.309Z,1.82
2023-02-27T22:42:11.393Z,1.71
2023-02-27T23:11:56.462Z,1.58
